sensor_id;sensor_type;location;lat;lon;timestamp;temperature;humidity
7077;DHT22;3579;48.956;9.154;2022-12-10T00:01:17;16.50;51.60
7077;DHT22;3579;48.956;9.154;2022-12-10T00:03:44;16.50;51.60
7077;DHT22;3579;48.956;9.154;2022-12-10T00:06:14;16.50;51.60
7077;DHT22;3579;48.956;9.154;2022-12-10T00:08:41;16.50;51.70
7077;DHT22;3579;48.956;9.154;2022-12-10T00:11:10;16.50;51.70
7077;DHT22;3579;48.956;9.154;2022-12-10T00:13:37;16.50;51.70
7077;DHT22;3579;48.956;9.154;2022-12-10T00:16:05;16.50;51.70
7077;DHT22;3579;48.956;9.154;2022-12-10T00:18:33;16.50;51.70
7077;DHT22;3579;48.956;9.154;2022-12-10T00:21:06;16.40;51.60
7077;DHT22;3579;48.956;9.154;2022-12-10T00:23:33;16.40;51.60
7077;DHT22;3579;48.956;9.154;2022-12-10T00:28:36;16.40;51.60
7077;DHT22;3579;48.956;9.154;2022-12-10T00:33:30;16.40;51.80
7077;DHT22;3579;48.956;9.154;2022-12-10T00:35:56;16.40;51.80
7077;DHT22;3579;48.956;9.154;2022-12-10T00:38:26;16.40;51.80
7077;DHT22;3579;48.956;9.154;2022-12-10T00:40:52;16.40;51.80
7077;DHT22;3579;48.956;9.154;2022-12-10T00:43:19;16.40;51.80
7077;DHT22;3579;48.956;9.154;2022-12-10T00:45:45;16.40;51.80
7077;DHT22;3579;48.956;9.154;2022-12-10T00:48:11;16.40;51.80
7077;DHT22;3579;48.956;9.154;2022-12-10T00:50:37;16.40;51.80
7077;DHT22;3579;48.956;9.154;2022-12-10T00:53:04;16.30;51.80
7077;DHT22;3579;48.956;9.154;2022-12-10T00:55:30;16.40;51.80
7077;DHT22;3579;48.956;9.154;2022-12-10T00:57:56;16.30;51.80
7077;DHT22;3579;48.956;9.154;2022-12-10T01:00:22;16.30;51.80
7077;DHT22;3579;48.956;9.154;2022-12-10T01:02:50;16.30;51.80
7077;DHT22;3579;48.956;9.154;2022-12-10T01:05:16;16.30;51.90
7077;DHT22;3579;48.956;9.154;2022-12-10T01:07:42;16.30;51.90
7077;DHT22;3579;48.956;9.154;2022-12-10T01:10:09;16.30;51.80
7077;DHT22;3579;48.956;9.154;2022-12-10T01:15:00;16.30;51.90
7077;DHT22;3579;48.956;9.154;2022-12-10T01:17:26;16.30;51.90
7077;DHT22;3579;48.956;9.154;2022-12-10T01:19:52;16.30;51.90
7077;DHT22;3579;48.956;9.154;2022-12-10T01:22:18;16.30;52.00
7077;DHT22;3579;48.956;9.154;2022-12-10T01:24:44;16.30;52.00
7077;DHT22;3579;48.956;9.154;2022-12-10T01:27:10;16.30;52.00
7077;DHT22;3579;48.956;9.154;2022-12-10T01:29:36;16.30;52.00
7077;DHT22;3579;48.956;9.154;2022-12-10T01:32:02;16.30;52.00
7077;DHT22;3579;48.956;9.154;2022-12-10T01:34:28;16.20;52.00
7077;DHT22;3579;48.956;9.154;2022-12-10T01:36:54;16.20;52.00
7077;DHT22;3579;48.956;9.154;2022-12-10T01:39:21;16.20;52.00
7077;DHT22;3579;48.956;9.154;2022-12-10T01:41:51;16.20;52.00
7077;DHT22;3579;48.956;9.154;2022-12-10T01:46:49;16.20;52.00
7077;DHT22;3579;48.956;9.154;2022-12-10T01:49:17;16.20;52.10
7077;DHT22;3579;48.956;9.154;2022-12-10T01:51:46;16.20;52.60
7077;DHT22;3579;48.956;9.154;2022-12-10T01:54:20;16.20;52.10
7077;DHT22;3579;48.956;9.154;2022-12-10T01:56:50;16.20;52.10
7077;DHT22;3579;48.956;9.154;2022-12-10T01:59:16;16.20;52.10
7077;DHT22;3579;48.956;9.154;2022-12-10T02:04:51;16.20;52.10
7077;DHT22;3579;48.956;9.154;2022-12-10T02:10:04;16.20;52.20
7077;DHT22;3579;48.956;9.154;2022-12-10T02:18:30;16.20;52.20
7077;DHT22;3579;48.956;9.154;2022-12-10T02:21:05;16.10;52.10
7077;DHT22;3579;48.956;9.154;2022-12-10T02:23:36;16.10;52.10
7077;DHT22;3579;48.956;9.154;2022-12-10T02:29:21;16.10;52.70
7077;DHT22;3579;48.956;9.154;2022-12-10T02:32:00;16.10;52.20
7077;DHT22;3579;48.956;9.154;2022-12-10T02:34:29;16.10;52.20
7077;DHT22;3579;48.956;9.154;2022-12-10T02:37:01;16.10;52.20
7077;DHT22;3579;48.956;9.154;2022-12-10T02:39:34;16.10;52.20
7077;DHT22;3579;48.956;9.154;2022-12-10T02:42:02;16.10;52.20
7077;DHT22;3579;48.956;9.154;2022-12-10T02:44:30;16.10;52.30
7077;DHT22;3579;48.956;9.154;2022-12-10T02:46:58;16.10;52.30
7077;DHT22;3579;48.956;9.154;2022-12-10T02:49:26;16.10;52.30
7077;DHT22;3579;48.956;9.154;2022-12-10T02:51:53;16.10;52.30
7077;DHT22;3579;48.956;9.154;2022-12-10T03:02:38;16.10;52.40
7077;DHT22;3579;48.956;9.154;2022-12-10T03:08:03;16.00;52.30
7077;DHT22;3579;48.956;9.154;2022-12-10T03:10:48;16.10;52.40
7077;DHT22;3579;48.956;9.154;2022-12-10T03:13:21;16.00;52.30
7077;DHT22;3579;48.956;9.154;2022-12-10T03:15:50;16.00;52.40
7077;DHT22;3579;48.956;9.154;2022-12-10T03:18:19;16.00;52.40
7077;DHT22;3579;48.956;9.154;2022-12-10T03:20:46;16.00;52.30
7077;DHT22;3579;48.956;9.154;2022-12-10T03:23:16;16.00;52.90
7077;DHT22;3579;48.956;9.154;2022-12-10T03:25:43;16.00;52.40
7077;DHT22;3579;48.956;9.154;2022-12-10T03:28:10;16.00;52.40
7077;DHT22;3579;48.956;9.154;2022-12-10T03:30:38;16.00;52.40
7077;DHT22;3579;48.956;9.154;2022-12-10T03:33:05;16.00;52.40
7077;DHT22;3579;48.956;9.154;2022-12-10T03:35:32;16.00;52.40
7077;DHT22;3579;48.956;9.154;2022-12-10T03:37:58;16.00;52.40
7077;DHT22;3579;48.956;9.154;2022-12-10T03:40:25;16.00;52.40
7077;DHT22;3579;48.956;9.154;2022-12-10T03:42:52;16.00;52.40
7077;DHT22;3579;48.956;9.154;2022-12-10T03:45:18;16.00;52.40
7077;DHT22;3579;48.956;9.154;2022-12-10T03:47:44;16.00;52.50
7077;DHT22;3579;48.956;9.154;2022-12-10T03:50:11;16.00;52.50
7077;DHT22;3579;48.956;9.154;2022-12-10T03:52:37;16.00;52.50
7077;DHT22;3579;48.956;9.154;2022-12-10T03:55:04;15.90;52.40
7077;DHT22;3579;48.956;9.154;2022-12-10T03:57:30;16.00;52.50
7077;DHT22;3579;48.956;9.154;2022-12-10T03:59:56;15.90;52.40
7077;DHT22;3579;48.956;9.154;2022-12-10T04:02:23;15.90;52.50
7077;DHT22;3579;48.956;9.154;2022-12-10T04:04:49;15.90;52.50
7077;DHT22;3579;48.956;9.154;2022-12-10T04:07:15;15.90;52.50
7077;DHT22;3579;48.956;9.154;2022-12-10T04:09:41;15.90;52.50
7077;DHT22;3579;48.956;9.154;2022-12-10T04:12:07;15.90;52.50
7077;DHT22;3579;48.956;9.154;2022-12-10T04:14:33;15.90;52.50
7077;DHT22;3579;48.956;9.154;2022-12-10T04:17:18;15.90;52.50
7077;DHT22;3579;48.956;9.154;2022-12-10T04:19:44;15.90;52.50
7077;DHT22;3579;48.956;9.154;2022-12-10T04:22:10;15.90;52.60
7077;DHT22;3579;48.956;9.154;2022-12-10T04:24:55;15.90;52.60
7077;DHT22;3579;48.956;9.154;2022-12-10T04:27:53;15.90;52.60
7077;DHT22;3579;48.956;9.154;2022-12-10T04:30:19;15.80;52.60
7077;DHT22;3579;48.956;9.154;2022-12-10T04:32:45;15.80;52.60
7077;DHT22;3579;48.956;9.154;2022-12-10T04:35:11;15.80;52.60
7077;DHT22;3579;48.956;9.154;2022-12-10T04:37:37;15.80;52.60
7077;DHT22;3579;48.956;9.154;2022-12-10T04:40:04;15.80;52.60
7077;DHT22;3579;48.956;9.154;2022-12-10T04:42:30;15.80;52.60
7077;DHT22;3579;48.956;9.154;2022-12-10T04:44:56;15.80;52.60
7077;DHT22;3579;48.956;9.154;2022-12-10T04:47:23;15.80;52.60
7077;DHT22;3579;48.956;9.154;2022-12-10T04:49:49;15.80;52.70
7077;DHT22;3579;48.956;9.154;2022-12-10T04:52:16;15.80;52.70
7077;DHT22;3579;48.956;9.154;2022-12-10T04:54:43;15.80;52.70
7077;DHT22;3579;48.956;9.154;2022-12-10T04:57:10;15.80;52.70
7077;DHT22;3579;48.956;9.154;2022-12-10T04:59:36;15.80;52.70
7077;DHT22;3579;48.956;9.154;2022-12-10T05:02:03;15.80;52.70
7077;DHT22;3579;48.956;9.154;2022-12-10T05:04:30;15.80;52.70
7077;DHT22;3579;48.956;9.154;2022-12-10T05:06:56;15.80;52.70
7077;DHT22;3579;48.956;9.154;2022-12-10T05:09:22;15.80;52.70
7077;DHT22;3579;48.956;9.154;2022-12-10T05:11:48;15.80;52.70
7077;DHT22;3579;48.956;9.154;2022-12-10T05:14:15;15.80;52.70
7077;DHT22;3579;48.956;9.154;2022-12-10T05:16:42;15.80;52.70
7077;DHT22;3579;48.956;9.154;2022-12-10T05:19:09;15.80;52.80
7077;DHT22;3579;48.956;9.154;2022-12-10T05:21:35;15.70;52.70
7077;DHT22;3579;48.956;9.154;2022-12-10T05:24:20;15.80;52.80
7077;DHT22;3579;48.956;9.154;2022-12-10T05:26:46;15.80;52.80
7077;DHT22;3579;48.956;9.154;2022-12-10T05:29:16;15.70;52.70
7077;DHT22;3579;48.956;9.154;2022-12-10T05:31:42;15.70;52.70
7077;DHT22;3579;48.956;9.154;2022-12-10T05:34:10;15.70;52.70
7077;DHT22;3579;48.956;9.154;2022-12-10T05:36:36;15.70;52.70
7077;DHT22;3579;48.956;9.154;2022-12-10T05:39:03;15.80;52.80
7077;DHT22;3579;48.956;9.154;2022-12-10T05:41:30;15.70;52.70
7077;DHT22;3579;48.956;9.154;2022-12-10T05:43:58;15.70;52.70
7077;DHT22;3579;48.956;9.154;2022-12-10T05:46:26;15.70;52.70
7077;DHT22;3579;48.956;9.154;2022-12-10T05:48:53;15.70;52.70
7077;DHT22;3579;48.956;9.154;2022-12-10T05:51:25;15.70;52.80
7077;DHT22;3579;48.956;9.154;2022-12-10T05:53:52;15.70;52.80
7077;DHT22;3579;48.956;9.154;2022-12-10T05:56:20;15.70;52.80
7077;DHT22;3579;48.956;9.154;2022-12-10T05:58:48;15.70;52.80
7077;DHT22;3579;48.956;9.154;2022-12-10T06:01:17;15.70;52.80
7077;DHT22;3579;48.956;9.154;2022-12-10T06:03:44;15.70;52.80
7077;DHT22;3579;48.956;9.154;2022-12-10T06:06:11;15.70;52.80
7077;DHT22;3579;48.956;9.154;2022-12-10T06:08:37;15.70;52.80
7077;DHT22;3579;48.956;9.154;2022-12-10T06:11:05;15.70;52.80
7077;DHT22;3579;48.956;9.154;2022-12-10T06:13:32;15.70;52.80
7077;DHT22;3579;48.956;9.154;2022-12-10T06:15:58;15.70;52.80
7077;DHT22;3579;48.956;9.154;2022-12-10T06:18:25;15.70;52.90
7077;DHT22;3579;48.956;9.154;2022-12-10T06:20:51;15.70;52.90
7077;DHT22;3579;48.956;9.154;2022-12-10T06:23:17;15.70;52.90
7077;DHT22;3579;48.956;9.154;2022-12-10T06:25:43;15.70;52.90
7077;DHT22;3579;48.956;9.154;2022-12-10T06:28:09;15.70;52.90
7077;DHT22;3579;48.956;9.154;2022-12-10T06:30:35;15.70;52.90
7077;DHT22;3579;48.956;9.154;2022-12-10T06:33:01;15.70;52.90
7077;DHT22;3579;48.956;9.154;2022-12-10T06:35:27;15.60;52.90
7077;DHT22;3579;48.956;9.154;2022-12-10T06:37:53;15.60;52.80
7077;DHT22;3579;48.956;9.154;2022-12-10T06:40:19;15.70;52.90
7077;DHT22;3579;48.956;9.154;2022-12-10T06:42:45;15.60;52.90
7077;DHT22;3579;48.956;9.154;2022-12-10T06:45:11;15.60;52.90
7077;DHT22;3579;48.956;9.154;2022-12-10T06:47:37;15.60;52.90
7077;DHT22;3579;48.956;9.154;2022-12-10T06:50:04;15.60;52.90
7077;DHT22;3579;48.956;9.154;2022-12-10T06:52:30;15.60;53.00
7077;DHT22;3579;48.956;9.154;2022-12-10T06:54:56;15.60;53.00
7077;DHT22;3579;48.956;9.154;2022-12-10T06:57:23;15.60;53.00
7077;DHT22;3579;48.956;9.154;2022-12-10T06:59:49;15.60;53.00
7077;DHT22;3579;48.956;9.154;2022-12-10T07:02:15;15.60;52.90
7077;DHT22;3579;48.956;9.154;2022-12-10T07:04:41;15.60;53.00
7077;DHT22;3579;48.956;9.154;2022-12-10T07:07:08;15.60;53.00
7077;DHT22;3579;48.956;9.154;2022-12-10T07:09:34;15.60;53.00
7077;DHT22;3579;48.956;9.154;2022-12-10T07:12:00;15.60;52.90
7077;DHT22;3579;48.956;9.154;2022-12-10T07:14:26;15.60;52.90
7077;DHT22;3579;48.956;9.154;2022-12-10T07:16:52;15.60;52.90
7077;DHT22;3579;48.956;9.154;2022-12-10T07:19:18;15.60;53.00
7077;DHT22;3579;48.956;9.154;2022-12-10T07:21:45;15.60;53.00
7077;DHT22;3579;48.956;9.154;2022-12-10T07:24:17;17.20;54.30
7077;DHT22;3579;48.956;9.154;2022-12-10T07:26:45;15.60;53.00
7077;DHT22;3579;48.956;9.154;2022-12-10T07:29:17;15.60;53.00
7077;DHT22;3579;48.956;9.154;2022-12-10T07:31:44;15.60;53.00
7077;DHT22;3579;48.956;9.154;2022-12-10T07:34:11;15.60;53.00
7077;DHT22;3579;48.956;9.154;2022-12-10T07:36:37;15.60;53.00
7077;DHT22;3579;48.956;9.154;2022-12-10T07:39:08;15.60;53.00
7077;DHT22;3579;48.956;9.154;2022-12-10T07:41:35;15.60;53.00
7077;DHT22;3579;48.956;9.154;2022-12-10T07:44:04;15.60;53.00
7077;DHT22;3579;48.956;9.154;2022-12-10T07:46:32;15.60;53.00
7077;DHT22;3579;48.956;9.154;2022-12-10T07:49:02;15.60;53.00
7077;DHT22;3579;48.956;9.154;2022-12-10T07:51:29;15.60;53.00
7077;DHT22;3579;48.956;9.154;2022-12-10T07:53:56;15.60;53.00
7077;DHT22;3579;48.956;9.154;2022-12-10T07:56:24;15.50;52.90
7077;DHT22;3579;48.956;9.154;2022-12-10T07:58:51;15.60;53.00
7077;DHT22;3579;48.956;9.154;2022-12-10T08:01:24;15.50;52.90
7077;DHT22;3579;48.956;9.154;2022-12-10T08:03:51;15.60;53.00
7077;DHT22;3579;48.956;9.154;2022-12-10T08:06:20;15.50;52.90
7077;DHT22;3579;48.956;9.154;2022-12-10T08:08:47;15.50;53.00
7077;DHT22;3579;48.956;9.154;2022-12-10T08:11:15;15.50;53.00
7077;DHT22;3579;48.956;9.154;2022-12-10T08:13:43;15.60;53.10
7077;DHT22;3579;48.956;9.154;2022-12-10T08:16:19;15.50;53.00
7077;DHT22;3579;48.956;9.154;2022-12-10T08:18:45;15.60;53.10
7077;DHT22;3579;48.956;9.154;2022-12-10T08:21:17;15.50;53.00
7077;DHT22;3579;48.956;9.154;2022-12-10T08:23:44;15.60;53.10
7077;DHT22;3579;48.956;9.154;2022-12-10T08:26:14;15.60;53.00
7077;DHT22;3579;48.956;9.154;2022-12-10T08:28:40;15.60;53.00
7077;DHT22;3579;48.956;9.154;2022-12-10T08:31:08;15.60;53.00
7077;DHT22;3579;48.956;9.154;2022-12-10T08:33:36;15.60;53.00
7077;DHT22;3579;48.956;9.154;2022-12-10T08:36:04;15.60;53.00
7077;DHT22;3579;48.956;9.154;2022-12-10T08:38:31;15.60;53.00
7077;DHT22;3579;48.956;9.154;2022-12-10T08:40:58;15.60;53.00
7077;DHT22;3579;48.956;9.154;2022-12-10T08:43:24;15.60;52.90
7077;DHT22;3579;48.956;9.154;2022-12-10T08:45:51;15.60;52.90
7077;DHT22;3579;48.956;9.154;2022-12-10T08:48:18;15.70;53.00
7077;DHT22;3579;48.956;9.154;2022-12-10T08:50:44;15.70;53.00
7077;DHT22;3579;48.956;9.154;2022-12-10T08:53:11;15.70;52.90
7077;DHT22;3579;48.956;9.154;2022-12-10T08:55:40;15.70;52.90
7077;DHT22;3579;48.956;9.154;2022-12-10T08:58:07;15.70;52.90
7077;DHT22;3579;48.956;9.154;2022-12-10T09:00:34;15.70;52.80
7077;DHT22;3579;48.956;9.154;2022-12-10T09:03:00;15.70;52.90
7077;DHT22;3579;48.956;9.154;2022-12-10T09:05:26;15.70;52.80
7077;DHT22;3579;48.956;9.154;2022-12-10T09:07:53;15.70;52.80
7077;DHT22;3579;48.956;9.154;2022-12-10T09:10:19;15.70;52.80
7077;DHT22;3579;48.956;9.154;2022-12-10T09:12:45;15.70;52.80
7077;DHT22;3579;48.956;9.154;2022-12-10T09:15:11;15.70;52.70
7077;DHT22;3579;48.956;9.154;2022-12-10T09:17:37;15.70;52.80
7077;DHT22;3579;48.956;9.154;2022-12-10T09:20:05;15.80;52.80
7077;DHT22;3579;48.956;9.154;2022-12-10T09:22:32;15.80;52.80
7077;DHT22;3579;48.956;9.154;2022-12-10T09:24:58;15.80;52.90
7077;DHT22;3579;48.956;9.154;2022-12-10T09:27:25;15.80;52.80
7077;DHT22;3579;48.956;9.154;2022-12-10T09:29:51;15.80;52.80
7077;DHT22;3579;48.956;9.154;2022-12-10T09:32:17;15.80;52.80
7077;DHT22;3579;48.956;9.154;2022-12-10T09:34:43;15.80;52.80
7077;DHT22;3579;48.956;9.154;2022-12-10T09:37:09;15.80;52.80
7077;DHT22;3579;48.956;9.154;2022-12-10T09:39:36;15.80;52.80
7077;DHT22;3579;48.956;9.154;2022-12-10T09:42:09;15.80;52.70
7077;DHT22;3579;48.956;9.154;2022-12-10T09:47:36;15.90;52.80
7077;DHT22;3579;48.956;9.154;2022-12-10T09:50:15;15.90;52.80
7077;DHT22;3579;48.956;9.154;2022-12-10T09:52:45;15.90;52.70
7077;DHT22;3579;48.956;9.154;2022-12-10T09:55:34;15.90;52.70
7077;DHT22;3579;48.956;9.154;2022-12-10T09:58:04;15.90;52.70
7077;DHT22;3579;48.956;9.154;2022-12-10T10:00:38;15.90;52.70
7077;DHT22;3579;48.956;9.154;2022-12-10T10:03:05;15.90;52.70
7077;DHT22;3579;48.956;9.154;2022-12-10T10:05:38;15.90;52.60
7077;DHT22;3579;48.956;9.154;2022-12-10T10:08:12;16.00;53.30
7077;DHT22;3579;48.956;9.154;2022-12-10T10:10:40;16.00;52.70
7077;DHT22;3579;48.956;9.154;2022-12-10T10:15:35;16.00;52.60
7077;DHT22;3579;48.956;9.154;2022-12-10T10:18:08;16.00;52.60
7077;DHT22;3579;48.956;9.154;2022-12-10T10:20:37;16.00;52.60
7077;DHT22;3579;48.956;9.154;2022-12-10T10:23:03;16.00;52.60
7077;DHT22;3579;48.956;9.154;2022-12-10T10:25:30;16.10;52.60
7077;DHT22;3579;48.956;9.154;2022-12-10T10:27:56;16.10;52.60
7077;DHT22;3579;48.956;9.154;2022-12-10T10:30:23;16.10;52.50
7077;DHT22;3579;48.956;9.154;2022-12-10T10:32:57;16.10;52.50
7077;DHT22;3579;48.956;9.154;2022-12-10T10:35:32;16.10;52.50
7077;DHT22;3579;48.956;9.154;2022-12-10T10:38:07;16.10;52.40
7077;DHT22;3579;48.956;9.154;2022-12-10T10:40:41;16.10;52.50
7077;DHT22;3579;48.956;9.154;2022-12-10T10:43:15;16.10;52.40
7077;DHT22;3579;48.956;9.154;2022-12-10T10:45:43;16.10;52.40
7077;DHT22;3579;48.956;9.154;2022-12-10T10:48:19;16.20;52.40
7077;DHT22;3579;48.956;9.154;2022-12-10T10:50:48;16.20;52.40
7077;DHT22;3579;48.956;9.154;2022-12-10T10:53:25;16.20;52.40
7077;DHT22;3579;48.956;9.154;2022-12-10T10:55:54;16.20;52.30
7077;DHT22;3579;48.956;9.154;2022-12-10T10:58:22;16.20;52.40
7077;DHT22;3579;48.956;9.154;2022-12-10T11:01:01;16.30;52.40
7077;DHT22;3579;48.956;9.154;2022-12-10T11:03:29;16.30;52.40
7077;DHT22;3579;48.956;9.154;2022-12-10T11:05:56;16.30;52.30
7077;DHT22;3579;48.956;9.154;2022-12-10T11:08:25;16.30;52.30
7077;DHT22;3579;48.956;9.154;2022-12-10T11:10:56;16.30;52.30
7077;DHT22;3579;48.956;9.154;2022-12-10T11:13:28;16.30;52.40
7077;DHT22;3579;48.956;9.154;2022-12-10T11:18:55;16.30;52.40
7077;DHT22;3579;48.956;9.154;2022-12-10T11:21:23;16.30;52.40
7077;DHT22;3579;48.956;9.154;2022-12-10T11:23:55;16.30;52.40
7077;DHT22;3579;48.956;9.154;2022-12-10T11:26:37;16.40;52.50
7077;DHT22;3579;48.956;9.154;2022-12-10T11:43:05;16.50;52.40
7077;DHT22;3579;48.956;9.154;2022-12-10T11:45:57;16.50;52.40
7077;DHT22;3579;48.956;9.154;2022-12-10T11:48:59;16.50;52.40
7077;DHT22;3579;48.956;9.154;2022-12-10T11:55:07;16.50;52.30
7077;DHT22;3579;48.956;9.154;2022-12-10T11:58:23;16.50;52.30
7077;DHT22;3579;48.956;9.154;2022-12-10T12:01:23;16.50;52.20
7077;DHT22;3579;48.956;9.154;2022-12-10T12:06:51;16.60;52.40
7077;DHT22;3579;48.956;9.154;2022-12-10T12:09:30;16.60;52.40
7077;DHT22;3579;48.956;9.154;2022-12-10T12:14:55;16.60;52.30
7077;DHT22;3579;48.956;9.154;2022-12-10T12:17:36;16.60;52.30
7077;DHT22;3579;48.956;9.154;2022-12-10T12:22:54;16.60;52.30
7077;DHT22;3579;48.956;9.154;2022-12-10T12:25:27;16.60;52.30
7077;DHT22;3579;48.956;9.154;2022-12-10T12:28:21;16.60;52.80
7077;DHT22;3579;48.956;9.154;2022-12-10T12:30:47;16.60;52.20
7077;DHT22;3579;48.956;9.154;2022-12-10T12:33:47;16.60;52.30
7077;DHT22;3579;48.956;9.154;2022-12-10T12:36:21;16.60;52.20
7077;DHT22;3579;48.956;9.154;2022-12-10T12:39:02;16.60;52.20
7077;DHT22;3579;48.956;9.154;2022-12-10T12:41:43;16.60;52.10
7077;DHT22;3579;48.956;9.154;2022-12-10T12:44:43;16.60;52.10
7077;DHT22;3579;48.956;9.154;2022-12-10T12:47:36;16.70;52.20
7077;DHT22;3579;48.956;9.154;2022-12-10T12:50:11;16.70;52.20
7077;DHT22;3579;48.956;9.154;2022-12-10T12:52:55;16.60;52.10
7077;DHT22;3579;48.956;9.154;2022-12-10T12:55:37;16.70;52.20
7077;DHT22;3579;48.956;9.154;2022-12-10T12:58:31;16.70;52.10
7077;DHT22;3579;48.956;9.154;2022-12-10T13:03:48;16.70;52.20
7077;DHT22;3579;48.956;9.154;2022-12-10T13:06:22;16.70;52.10
7077;DHT22;3579;48.956;9.154;2022-12-10T13:09:15;16.70;52.20
7077;DHT22;3579;48.956;9.154;2022-12-10T13:11:46;16.70;52.20
7077;DHT22;3579;48.956;9.154;2022-12-10T13:14:33;16.70;52.10
7077;DHT22;3579;48.956;9.154;2022-12-10T13:17:24;16.70;52.20
7077;DHT22;3579;48.956;9.154;2022-12-10T13:19:51;16.70;52.10
7077;DHT22;3579;48.956;9.154;2022-12-10T13:25:17;16.70;52.10
7077;DHT22;3579;48.956;9.154;2022-12-10T13:27:57;16.70;52.10
7077;DHT22;3579;48.956;9.154;2022-12-10T13:30:41;16.70;52.10
7077;DHT22;3579;48.956;9.154;2022-12-10T13:33:18;16.70;52.20
7077;DHT22;3579;48.956;9.154;2022-12-10T13:35:57;16.70;52.10
7077;DHT22;3579;48.956;9.154;2022-12-10T13:38:26;16.70;52.10
7077;DHT22;3579;48.956;9.154;2022-12-10T13:41:03;16.70;52.20
7077;DHT22;3579;48.956;9.154;2022-12-10T13:43:53;16.70;52.20
7077;DHT22;3579;48.956;9.154;2022-12-10T13:47:00;16.70;52.20
7077;DHT22;3579;48.956;9.154;2022-12-10T13:49:31;16.70;52.20
7077;DHT22;3579;48.956;9.154;2022-12-10T13:52:07;16.70;52.20
7077;DHT22;3579;48.956;9.154;2022-12-10T14:00:38;16.70;52.20
7077;DHT22;3579;48.956;9.154;2022-12-10T14:03:39;16.70;52.20
7077;DHT22;3579;48.956;9.154;2022-12-10T14:06:24;16.70;52.20
7077;DHT22;3579;48.956;9.154;2022-12-10T14:09:09;16.70;52.20
7077;DHT22;3579;48.956;9.154;2022-12-10T14:11:42;16.70;52.20
7077;DHT22;3579;48.956;9.154;2022-12-10T14:14:22;16.70;52.20
7077;DHT22;3579;48.956;9.154;2022-12-10T14:16:49;16.70;52.20
7077;DHT22;3579;48.956;9.154;2022-12-10T14:19:17;16.70;52.20
7077;DHT22;3579;48.956;9.154;2022-12-10T14:21:45;16.70;52.20
7077;DHT22;3579;48.956;9.154;2022-12-10T14:24:32;16.70;52.20
7077;DHT22;3579;48.956;9.154;2022-12-10T14:27:20;16.70;52.20
7077;DHT22;3579;48.956;9.154;2022-12-10T14:29:52;16.70;52.20
7077;DHT22;3579;48.956;9.154;2022-12-10T14:32:20;16.70;52.20
7077;DHT22;3579;48.956;9.154;2022-12-10T14:34:54;16.70;52.20
7077;DHT22;3579;48.956;9.154;2022-12-10T14:37:26;16.70;52.20
7077;DHT22;3579;48.956;9.154;2022-12-10T14:39:53;16.70;52.20
7077;DHT22;3579;48.956;9.154;2022-12-10T14:42:19;16.70;52.20
7077;DHT22;3579;48.956;9.154;2022-12-10T14:44:46;16.70;52.30
7077;DHT22;3579;48.956;9.154;2022-12-10T14:47:17;16.70;52.30
7077;DHT22;3579;48.956;9.154;2022-12-10T14:49:46;16.60;52.20
7077;DHT22;3579;48.956;9.154;2022-12-10T14:52:18;16.70;52.30
7077;DHT22;3579;48.956;9.154;2022-12-10T14:54:45;16.70;52.30
7077;DHT22;3579;48.956;9.154;2022-12-10T14:57:17;16.60;52.20
7077;DHT22;3579;48.956;9.154;2022-12-10T15:00:03;16.60;52.30
7077;DHT22;3579;48.956;9.154;2022-12-10T15:02:34;16.70;52.30
7077;DHT22;3579;48.956;9.154;2022-12-10T15:05:01;16.60;52.30
7077;DHT22;3579;48.956;9.154;2022-12-10T15:07:31;16.70;52.90
7077;DHT22;3579;48.956;9.154;2022-12-10T15:10:02;16.60;52.30
7077;DHT22;3579;48.956;9.154;2022-12-10T15:15:04;16.60;52.40
7077;DHT22;3579;48.956;9.154;2022-12-10T15:17:43;16.60;52.40
7077;DHT22;3579;48.956;9.154;2022-12-10T15:20:27;16.60;52.40
7077;DHT22;3579;48.956;9.154;2022-12-10T15:22:55;16.60;52.40
7077;DHT22;3579;48.956;9.154;2022-12-10T15:25:44;16.60;52.40
7077;DHT22;3579;48.956;9.154;2022-12-10T15:28:26;16.50;52.40
7077;DHT22;3579;48.956;9.154;2022-12-10T15:30:58;16.60;52.40
7077;DHT22;3579;48.956;9.154;2022-12-10T15:34:06;16.50;52.40
7077;DHT22;3579;48.956;9.154;2022-12-10T15:36:39;16.60;52.50
7077;DHT22;3579;48.956;9.154;2022-12-10T15:39:37;16.60;52.40
7077;DHT22;3579;48.956;9.154;2022-12-10T15:42:08;16.50;52.30
7077;DHT22;3579;48.956;9.154;2022-12-10T15:44:56;16.50;52.40
7077;DHT22;3579;48.956;9.154;2022-12-10T15:47:25;16.50;52.40
7077;DHT22;3579;48.956;9.154;2022-12-10T15:49:54;16.50;52.40
7077;DHT22;3579;48.956;9.154;2022-12-10T15:52:25;16.50;52.50
7077;DHT22;3579;48.956;9.154;2022-12-10T15:54:53;16.50;52.40
7077;DHT22;3579;48.956;9.154;2022-12-10T15:57:23;16.50;52.50
7077;DHT22;3579;48.956;9.154;2022-12-10T15:59:58;15.20;51.40
7077;DHT22;3579;48.956;9.154;2022-12-10T16:02:40;16.50;52.50
7077;DHT22;3579;48.956;9.154;2022-12-10T16:05:19;16.50;52.60
7077;DHT22;3579;48.956;9.154;2022-12-10T16:07:49;16.40;52.50
7077;DHT22;3579;48.956;9.154;2022-12-10T16:10:18;16.50;52.60
7077;DHT22;3579;48.956;9.154;2022-12-10T16:12:59;16.40;52.50
7077;DHT22;3579;48.956;9.154;2022-12-10T16:15:28;16.40;52.50
7077;DHT22;3579;48.956;9.154;2022-12-10T16:17:56;16.40;52.50
7077;DHT22;3579;48.956;9.154;2022-12-10T16:20:26;16.40;52.50
7077;DHT22;3579;48.956;9.154;2022-12-10T16:22:57;16.40;52.50
7077;DHT22;3579;48.956;9.154;2022-12-10T16:25:25;16.40;52.50
7077;DHT22;3579;48.956;9.154;2022-12-10T16:27:52;16.40;52.50
7077;DHT22;3579;48.956;9.154;2022-12-10T16:30:33;16.40;52.50
7077;DHT22;3579;48.956;9.154;2022-12-10T16:33:01;16.40;52.50
7077;DHT22;3579;48.956;9.154;2022-12-10T16:35:27;16.40;52.50
7077;DHT22;3579;48.956;9.154;2022-12-10T16:37:53;16.40;52.50
7077;DHT22;3579;48.956;9.154;2022-12-10T16:40:26;16.40;52.60
7077;DHT22;3579;48.956;9.154;2022-12-10T16:42:53;16.40;52.60
7077;DHT22;3579;48.956;9.154;2022-12-10T16:45:34;16.40;52.50
7077;DHT22;3579;48.956;9.154;2022-12-10T16:48:00;16.40;52.50
7077;DHT22;3579;48.956;9.154;2022-12-10T16:50:27;16.40;52.60
7077;DHT22;3579;48.956;9.154;2022-12-10T16:52:55;16.40;52.60
7077;DHT22;3579;48.956;9.154;2022-12-10T16:55:23;16.40;52.60
7077;DHT22;3579;48.956;9.154;2022-12-10T16:57:49;16.30;52.50
7077;DHT22;3579;48.956;9.154;2022-12-10T17:00:19;16.30;52.60
7077;DHT22;3579;48.956;9.154;2022-12-10T17:02:46;16.30;52.60
7077;DHT22;3579;48.956;9.154;2022-12-10T17:05:29;16.30;52.50
7077;DHT22;3579;48.956;9.154;2022-12-10T17:07:57;16.30;52.50
7077;DHT22;3579;48.956;9.154;2022-12-10T17:10:24;16.30;52.60
7077;DHT22;3579;48.956;9.154;2022-12-10T17:13:14;16.30;52.60
7077;DHT22;3579;48.956;9.154;2022-12-10T17:15:41;16.30;52.60
7077;DHT22;3579;48.956;9.154;2022-12-10T17:18:14;16.30;52.60
7077;DHT22;3579;48.956;9.154;2022-12-10T17:20:40;16.30;52.60
7077;DHT22;3579;48.956;9.154;2022-12-10T17:23:07;16.30;52.70
7077;DHT22;3579;48.956;9.154;2022-12-10T17:25:33;16.30;52.70
7077;DHT22;3579;48.956;9.154;2022-12-10T17:27:59;16.30;52.70
7077;DHT22;3579;48.956;9.154;2022-12-10T17:30:26;16.30;52.80
7077;DHT22;3579;48.956;9.154;2022-12-10T17:32:52;16.30;52.70
7077;DHT22;3579;48.956;9.154;2022-12-10T17:35:19;16.30;52.80
7077;DHT22;3579;48.956;9.154;2022-12-10T17:37:46;16.30;52.80
7077;DHT22;3579;48.956;9.154;2022-12-10T17:40:14;16.20;52.80
7077;DHT22;3579;48.956;9.154;2022-12-10T17:42:40;16.20;52.80
7077;DHT22;3579;48.956;9.154;2022-12-10T17:45:06;16.20;52.70
7077;DHT22;3579;48.956;9.154;2022-12-10T17:47:33;16.20;52.70
7077;DHT22;3579;48.956;9.154;2022-12-10T17:50:01;16.20;52.70